Time;durP1;ratioP1;P1;durP2;ratioP2;P2;SDS_P1;SDS_P2;PMS_P1;PMS_P2;Temp;Humidity;BMP_temperature;BMP_pressure;BME280_temperature;BME280_humidity;BME280_pressure;Samples;Min_cycle;Max_cycle;Signal;HPM_P1;HPM_P2
2022/12/25 00:01:31;;;;;;;19.00;5.10;;;;;;;9.15;100.00;101342.94;5092602;28;20449;-51
2022/12/25 00:03:59;;;;;;;14.30;5.13;;;;;;;9.19;100.00;101354.19;5093734;28;20059;-51
2022/12/25 00:06:27;;;;;;;17.02;4.95;;;;;;;9.22;100.00;101347.41;5093550;28;20490;-50
2022/12/25 00:08:54;;;;;;;15.55;5.25;;;;;;;9.23;100.00;101332.75;5092173;28;20119;-50
2022/12/25 00:11:22;;;;;;;14.20;4.82;;;;;;;9.24;100.00;101335.22;5090784;28;20106;-50
2022/12/25 00:13:50;;;;;;;16.38;5.25;;;;;;;9.25;100.00;101336.84;5071992;28;20033;-51
2022/12/25 00:16:20;;;;;;;17.13;6.03;;;;;;;9.26;100.00;101333.09;5092439;28;20044;-51
2022/12/25 00:18:50;;;;;;;14.40;5.43;;;;;;;9.26;100.00;101343.13;5093660;28;20067;-51
2022/12/25 00:21:18;;;;;;;16.42;5.25;;;;;;;9.27;100.00;101334.72;5090763;28;20131;-52
2022/12/25 00:23:46;;;;;;;16.35;5.20;;;;;;;9.26;100.00;101338.53;5096783;28;20078;-57
2022/12/25 00:26:16;;;;;;;14.18;5.18;;;;;;;9.27;100.00;101337.44;5093021;28;20042;-54
2022/12/25 00:28:44;;;;;;;19.50;6.45;;;;;;;9.24;100.00;101335.22;5091229;28;20036;-53
2022/12/25 00:31:15;;;;;;;15.93;5.40;;;;;;;9.22;100.00;101337.34;5091981;28;20040;-54
2022/12/25 00:33:44;;;;;;;17.95;5.13;;;;;;;9.22;100.00;101339.25;5092849;28;20048;-55
2022/12/25 00:36:13;;;;;;;19.77;6.20;;;;;;;9.23;100.00;101332.75;5091616;28;20044;-57
2022/12/25 00:38:41;;;;;;;23.52;5.57;;;;;;;9.24;100.00;101332.50;5091968;28;20044;-54
2022/12/25 00:42:17;;;;;;;19.13;5.72;;;;;;;9.24;100.00;101329.78;5091856;28;20073;-53
2022/12/25 00:44:07;;;;;;;15.38;4.90;;;;;;;9.22;100.00;101325.66;5093058;28;20032;-51
2022/12/25 00:46:35;;;;;;;19.35;5.45;;;;;;;9.20;100.00;101328.63;5091583;28;20491;-52
2022/12/25 00:49:03;;;;;;;16.40;5.28;;;;;;;9.18;100.00;101325.31;5091347;28;20067;-56
2022/12/25 00:51:31;;;;;;;15.60;5.20;;;;;;;9.18;100.00;101325.31;5092955;28;20406;-53
2022/12/25 00:53:59;;;;;;;19.08;6.00;;;;;;;9.17;100.00;101319.06;5091237;28;20032;-53
2022/12/25 00:56:27;;;;;;;19.60;6.22;;;;;;;9.17;100.00;101324.50;5099455;28;20040;-54
2022/12/25 00:58:55;;;;;;;16.17;5.22;;;;;;;9.20;100.00;101323.19;5091695;28;20490;-54
2022/12/25 01:01:22;;;;;;;16.85;5.28;;;;;;;9.22;100.00;101317.50;5092540;28;20036;-53
2022/12/25 01:03:50;;;;;;;16.20;5.35;;;;;;;9.21;100.00;101318.56;5092130;28;20037;-54
2022/12/25 01:06:17;;;;;;;14.45;4.93;;;;;;;9.21;100.00;101318.56;5092588;28;20044;-54
2022/12/25 01:11:33;;;;;;;18.15;5.43;;;;;;;9.23;100.00;101311.81;5059882;28;20040;-55
2022/12/25 01:14:01;;;;;;;17.92;5.53;;;;;;;9.23;100.00;101311.81;5090273;28;20040;-52
2022/12/25 01:16:29;;;;;;;14.40;4.55;;;;;;;9.22;100.00;101317.50;5092643;28;20040;-53
2022/12/25 01:18:56;;;;;;;15.70;4.70;;;;;;;9.22;100.00;101315.59;5096661;28;20497;-52
2022/12/25 01:21:24;;;;;;;15.05;5.30;;;;;;;9.25;100.00;101308.84;5097040;28;20412;-55
2022/12/25 01:23:52;;;;;;;11.73;4.50;;;;;;;9.24;100.00;101316.19;5095482;28;20040;-53
2022/12/25 01:26:22;;;;;;;13.35;4.38;;;;;;;9.24;100.00;101316.19;5096818;28;20044;-55
2022/12/25 01:28:50;;;;;;;14.73;5.30;;;;;;;9.23;100.00;101314.53;5095418;28;20409;-54
2022/12/25 01:31:21;;;;;;;14.02;4.95;;;;;;;9.24;100.00;101318.91;5082183;28;20459;-54
2022/12/25 01:33:49;;;;;;;18.38;4.93;;;;;;;9.24;100.00;101324.34;5110269;28;20067;-53
2022/12/25 01:36:26;;;;;;;20.67;5.63;;;;;;;9.24;100.00;101332.50;5095373;28;20393;-53
2022/12/25 01:38:54;;;;;;;11.68;4.45;;;;;;;9.23;100.00;101336.28;5087845;28;20059;-53
2022/12/25 01:41:23;;;;;;;15.85;5.03;;;;;;;9.21;100.00;101330.25;5088086;28;20508;-53
2022/12/25 01:44:14;;;;;;;15.10;4.75;;;;;;;9.23;100.00;101339.00;5092688;28;20417;-56
2022/12/25 01:46:43;;;;;;;15.77;5.18;;;;;;;9.24;100.00;101335.22;5096460;28;20032;-56
2022/12/25 01:49:21;;;;;;;14.02;5.07;;;;;;;9.27;100.00;101328.47;5096224;28;20068;-52
2022/12/25 01:51:57;;;;;;;19.73;4.60;;;;;;;9.23;100.00;101319.97;5095076;28;20036;-52
2022/12/25 01:54:30;;;;;;;15.83;5.70;;;;;;;9.23;100.00;101328.13;5096176;28;20425;-53
2022/12/25 01:57:01;;;;;;;15.20;4.90;;;;;;;9.22;100.00;101337.34;5097723;28;20052;-55
2022/12/25 01:59:29;;;;;;;14.57;4.63;;;;;;;9.19;100.00;101337.88;5061245;28;20120;-53
2022/12/25 02:01:59;;;;;;;12.88;4.80;;;;;;;9.20;100.00;101338.69;5105100;28;20403;-54
2022/12/25 02:04:38;;;;;;;16.48;5.05;;;;;;;9.20;100.00;101353.09;5093536;28;20040;-56
2022/12/25 02:07:17;;;;;;;15.60;4.60;;;;;;;9.21;100.00;101352.00;5095795;28;20040;-52
2022/12/25 02:09:46;;;;;;;14.82;4.88;;;;;;;9.23;100.00;101349.88;5098549;28;20028;-52
2022/12/25 02:12:22;;;;;;;14.93;4.65;;;;;;;9.23;100.00;101349.88;5093631;28;20502;-53
2022/12/25 02:14:52;;;;;;;13.30;4.35;;;;;;;9.22;100.00;101352.84;5094855;28;20482;-51
2022/12/25 02:17:26;;;;;;;13.10;4.07;;;;;;;9.20;100.00;101344.94;5078154;28;20487;-56
2022/12/25 02:20:16;;;;;;;13.00;4.40;;;;;;;9.22;100.00;101345.53;5094642;28;20131;-56
2022/12/25 02:22:52;;;;;;;14.48;4.40;;;;;;;9.20;100.00;101350.38;5085827;28;20040;-55
2022/12/25 02:25:30;;;;;;;15.23;4.10;;;;;;;9.20;100.00;101355.81;5095375;28;20047;-51
2022/12/25 02:28:10;;;;;;;16.23;4.47;;;;;;;9.23;100.00;101354.50;5095410;28;20494;-55
2022/12/25 02:30:45;;;;;;;11.32;3.85;;;;;;;9.24;100.00;101351.53;5073372;28;20426;-55
2022/12/25 02:34:03;;;;;;;12.95;4.28;;;;;;;9.28;100.00;101355.38;5080661;28;20060;-55
2022/12/25 02:36:49;;;;;;;10.13;3.35;;;;;;;9.30;100.00;101360.59;5079837;28;20391;-51
2022/12/25 02:39:59;;;;;;;13.20;4.45;;;;;;;9.31;100.00;101352.19;5084301;28;20410;-51
2022/12/25 03:08:03;;;;;;;15.25;4.25;;;;;;;9.34;100.00;101302.75;5094499;28;20051;-54
2022/12/25 03:13:22;;;;;;;10.70;4.50;;;;;;;9.27;100.00;101291.22;5093821;28;20450;-52
2022/12/25 03:18:36;;;;;;;13.07;4.13;;;;;;;9.27;100.00;101255.06;5091810;28;20040;-54
2022/12/25 03:26:53;;;;;;;8.48;3.15;;;;;;;9.18;100.00;101243.75;5078890;28;20047;-51
2022/12/25 03:32:30;;;;;;;10.65;3.92;;;;;;;9.21;100.00;101240.53;5094270;28;20054;-56
2022/12/25 03:35:24;;;;;;;10.10;3.45;;;;;;;9.23;100.00;101241.13;5092089;28;20059;-53
2022/12/25 04:37:27;;;;;;;8.00;3.08;;;;;;;9.15;100.00;101236.09;5089757;28;19927;-50
2022/12/25 04:39:55;;;;;;;10.57;3.05;;;;;;;9.12;100.00;101244.78;5108818;28;20039;-57
2022/12/25 04:42:22;;;;;;;7.75;3.17;;;;;;;9.11;100.00;101248.53;5094424;28;20078;-56
2022/12/25 04:44:50;;;;;;;8.00;2.72;;;;;;;9.09;100.00;101253.41;5095044;28;20101;-53
2022/12/25 04:47:17;;;;;;;6.25;2.65;;;;;;;9.08;100.00;101243.59;5093252;28;20044;-50
2022/12/25 04:49:45;;;;;;;9.23;3.47;;;;;;;9.08;100.00;101243.59;5093497;28;20052;-55
2022/12/25 04:52:12;;;;;;;7.00;2.97;;;;;;;9.08;100.00;101238.16;5092537;28;20490;-53
2022/12/25 04:54:40;;;;;;;9.15;3.25;;;;;;;9.08;100.00;101238.16;5092828;28;20040;-52
2022/12/25 04:57:08;;;;;;;7.35;3.03;;;;;;;9.05;100.00;101235.94;5092778;28;20040;-51
2022/12/25 04:59:35;;;;;;;9.18;3.75;;;;;;;9.01;100.00;101240.22;5092981;28;20051;-53
2022/12/25 05:02:03;;;;;;;9.27;3.55;;;;;;;9.00;100.00;101233.97;5091567;28;20098;-52
2022/12/25 05:04:31;;;;;;;8.90;3.30;;;;;;;8.99;100.00;101229.59;5093572;28;20494;-56
2022/12/25 05:06:58;;;;;;;11.63;3.28;;;;;;;8.99;100.00;101228.78;5093919;28;20060;-52
2022/12/25 05:09:26;;;;;;;12.52;3.78;;;;;;;8.96;100.00;101233.63;5094047;28;20032;-59
2022/12/25 05:11:54;;;;;;;10.88;3.40;;;;;;;8.90;100.00;101234.63;5092917;28;20048;-57
2022/12/25 05:14:21;;;;;;;8.60;3.28;;;;;;;8.87;100.00;101240.53;5091063;28;20047;-53
2022/12/25 05:16:49;;;;;;;13.75;3.60;;;;;;;8.85;100.00;101240.00;5092799;28;20044;-50
2022/12/25 05:19:17;;;;;;;7.43;3.22;;;;;;;8.83;100.00;101236.69;5086388;28;20055;-51
2022/12/25 05:21:45;;;;;;;9.48;3.10;;;;;;;8.82;100.00;101229.59;5083466;28;20039;-51
2022/12/25 05:24:12;;;;;;;10.85;3.55;;;;;;;8.84;100.00;101219.31;5092832;28;20086;-53
2022/12/25 05:26:40;;;;;;;8.73;2.97;;;;;;;8.83;100.00;101217.66;5081814;28;20032;-50
2022/12/25 05:29:07;;;;;;;10.75;3.53;;;;;;;8.83;100.00;101231.25;5091310;28;20658;-50
2022/12/25 05:31:35;;;;;;;11.80;3.53;;;;;;;8.84;100.00;101229.34;5090504;28;20044;-49
2022/12/25 05:34:03;;;;;;;9.10;3.40;;;;;;;8.83;100.00;101225.81;5091028;28;20055;-51
2022/12/25 05:36:30;;;;;;;9.70;3.40;;;;;;;8.85;100.00;101212.81;5090404;28;20040;-48
2022/12/25 05:38:58;;;;;;;7.95;3.67;;;;;;;8.86;100.00;101219.88;5091310;28;20040;-52
2022/12/25 05:41:25;;;;;;;6.88;3.28;;;;;;;8.84;100.00;101208.44;5092599;28;20417;-51
2022/12/25 05:44:00;;;;;;;8.25;3.03;;;;;;;8.83;100.00;101201.38;5092280;28;20121;-51
2022/12/25 05:46:28;;;;;;;5.13;2.80;;;;;;;8.80;100.00;101199.13;5091277;28;20032;-54
2022/12/25 05:48:56;;;;;;;11.90;3.20;;;;;;;8.78;100.00;101195.00;5092108;28;20097;-50
2022/12/25 05:51:24;;;;;;;8.68;3.15;;;;;;;8.78;100.00;101195.84;5092633;28;20044;-49
2022/12/25 05:53:52;;;;;;;5.63;2.72;;;;;;;8.82;100.00;101201.59;5091029;28;20051;-51
2022/12/25 05:56:20;;;;;;;9.38;3.17;;;;;;;8.86;100.00;101202.75;5092451;28;20039;-54
2022/12/25 05:58:47;;;;;;;7.97;3.20;;;;;;;8.87;100.00;101197.06;5093773;28;20036;-52
2022/12/25 06:01:17;;;;;;;7.75;3.13;;;;;;;8.91;100.00;101200.94;5091952;28;20036;-53
2022/12/25 06:03:45;;;;;;;10.25;3.47;;;;;;;8.90;100.00;101204.75;5091732;28;20127;-54
2022/12/25 06:06:13;;;;;;;7.88;3.20;;;;;;;8.88;100.00;101200.63;5095622;28;20398;-52
2022/12/25 06:08:41;;;;;;;8.00;3.38;;;;;;;8.88;100.00;101192.47;5094469;28;20453;-52
2022/12/25 06:11:10;;;;;;;7.15;3.55;;;;;;;8.88;100.00;101171.56;5095719;28;20036;-53
2022/12/25 06:13:37;;;;;;;9.10;3.35;;;;;;;8.91;100.00;101173.78;5093547;28;20511;-49
2022/12/25 06:16:06;;;;;;;6.80;2.92;;;;;;;8.93;100.00;101171.63;5094001;28;20044;-52
2022/12/25 06:18:39;;;;;;;7.20;3.05;;;;;;;8.95;100.00;101174.94;5094824;28;20047;-53
2022/12/25 06:21:11;;;;;;;6.70;3.20;;;;;;;8.98;100.00;101183.66;5095486;28;20522;-51
2022/12/25 06:23:40;;;;;;;8.10;3.20;;;;;;;8.99;100.00;101186.09;5076861;28;20040;-51
2022/12/25 06:26:11;;;;;;;9.60;3.53;;;;;;;9.00;100.00;101178.81;5095492;28;20402;-49
2022/12/25 06:28:38;;;;;;;7.50;3.15;;;;;;;8.99;100.00;101175.22;5093735;28;20036;-47
2022/12/25 06:31:15;;;;;;;7.63;2.95;;;;;;;8.98;100.00;101161.91;5095442;28;20131;-53
2022/12/25 06:33:43;;;;;;;8.27;3.20;;;;;;;8.97;100.00;101155.63;5094842;28;20459;-52
2022/12/25 06:36:14;;;;;;;9.13;3.65;;;;;;;9.00;100.00;101151.63;5094628;28;20040;-52
2022/12/25 06:38:42;;;;;;;9.40;3.40;;;;;;;9.02;100.00;101146.75;5088996;28;20051;-50
2022/12/25 06:41:31;;;;;;;9.45;3.78;;;;;;;9.03;100.00;101153.84;5094131;28;20462;-50
2022/12/25 06:44:00;;;;;;;8.63;3.15;;;;;;;9.06;100.00;101147.88;5095164;28;20418;-51
2022/12/25 06:46:29;;;;;;;9.25;3.20;;;;;;;9.06;100.00;101132.41;5093326;28;20106;-51
2022/12/25 06:48:58;;;;;;;9.23;3.30;;;;;;;9.07;100.00;101127.81;5095020;28;20044;-54
2022/12/25 06:51:28;;;;;;;8.10;3.13;;;;;;;9.06;100.00;101121.53;5096592;28;20048;-53
2022/12/25 06:53:56;;;;;;;9.52;3.60;;;;;;;9.08;100.00;101118.56;5095641;28;20048;-54
2022/12/25 06:56:26;;;;;;;8.15;3.30;;;;;;;9.08;100.00;101132.97;5093890;28;20048;-51
2022/12/25 06:58:59;;;;;;;6.68;3.05;;;;;;;9.09;100.00;101122.91;5091633;28;20115;-51
2022/12/25 07:01:35;;;;;;;6.50;3.10;;;;;;;9.10;100.00;101108.28;5093574;28;20379;-50
2022/12/25 07:04:05;;;;;;;8.30;3.03;;;;;;;9.11;100.00;101093.59;5094612;28;20046;-54
2022/12/25 07:06:33;;;;;;;9.73;3.20;;;;;;;9.11;100.00;101086.25;5092955;28;20048;-49
2022/12/25 07:09:01;;;;;;;8.13;3.08;;;;;;;9.13;100.00;101091.44;5093981;28;20044;-50
2022/12/25 07:11:28;;;;;;;9.10;3.03;;;;;;;9.13;100.00;101105.03;5094696;28;20394;-51
2022/12/25 07:13:56;;;;;;;8.55;3.38;;;;;;;9.13;100.00;101105.03;5092841;28;20051;-51
2022/12/25 07:16:24;;;;;;;10.43;3.53;;;;;;;9.12;100.00;101101.50;5093244;28;20089;-50
2022/12/25 07:18:51;;;;;;;8.57;3.67;;;;;;;9.13;100.00;101113.19;5094279;28;20055;-49
2022/12/25 07:21:20;;;;;;;14.32;3.97;;;;;;;9.14;100.00;101114.84;5094188;28;20047;-53
2022/12/25 07:23:48;;;;;;;10.25;4.25;;;;;;;9.15;100.00;101116.50;5092402;28;20044;-48
2022/12/25 07:26:16;;;;;;;10.73;3.70;;;;;;;9.15;100.00;101127.38;5093838;28;20032;-48
2022/12/25 07:28:44;;;;;;;8.77;3.40;;;;;;;9.16;100.00;101129.84;5093666;28;20044;-53
2022/12/25 07:31:14;;;;;;;9.63;3.80;;;;;;;9.17;100.00;101138.81;5076788;28;20036;-52
2022/12/25 07:33:43;;;;;;;12.18;3.53;;;;;;;9.17;100.00;101138.81;5092925;28;20065;-51
2022/12/25 07:36:12;;;;;;;8.65;3.65;;;;;;;9.18;100.00;101135.81;5092336;28;20040;-50
2022/12/25 07:38:41;;;;;;;9.60;4.07;;;;;;;9.20;100.00;101140.22;5085544;28;20048;-48
2022/12/25 07:41:11;;;;;;;9.75;4.07;;;;;;;9.20;100.00;101143.75;5093783;28;20063;-50
2022/12/25 07:43:39;;;;;;;13.40;4.47;;;;;;;9.23;100.00;101140.50;5091569;28;20067;-60
2022/12/25 07:46:07;;;;;;;12.48;4.10;;;;;;;9.24;100.00;101138.66;5092087;28;20138;-56
2022/12/25 07:48:35;;;;;;;11.77;4.13;;;;;;;9.25;100.00;101115.81;5096405;28;20036;-56
2022/12/25 07:51:06;;;;;;;9.93;4.13;;;;;;;9.24;100.00;101106.84;5096364;28;20387;-54
2022/12/25 07:53:36;;;;;;;10.15;4.05;;;;;;;9.20;100.00;101100.25;5094113;28;20044;-57
2022/12/25 07:56:06;;;;;;;9.30;3.60;;;;;;;9.14;100.00;101095.84;5091838;28;20044;-53
2022/12/25 07:58:34;;;;;;;12.63;4.45;;;;;;;9.08;100.00;101111.22;5093742;28;20482;-54
2022/12/25 08:01:04;;;;;;;10.52;4.43;;;;;;;9.08;100.00;101121.28;5092745;28;20111;-55
2022/12/25 08:03:33;;;;;;;9.65;4.18;;;;;;;9.08;100.00;101134.88;5093167;28;20040;-54
2022/12/25 08:06:03;;;;;;;12.98;4.38;;;;;;;9.06;100.00;101154.16;5090743;28;20058;-52
2022/12/25 08:08:31;;;;;;;10.75;4.30;;;;;;;9.05;100.00;101168.00;5090506;28;20051;-53
2022/12/25 08:10:59;;;;;;;11.05;4.45;;;;;;;9.05;100.00;101159.84;5091245;28;20044;-52
2022/12/25 08:13:30;;;;;;;8.88;4.53;;;;;;;9.04;100.00;101167.16;5091779;28;20036;-56
2022/12/25 08:16:02;;;;;;;11.10;4.25;;;;;;;9.05;100.00;101168.81;5092383;28;20498;-55
2022/12/25 08:18:30;;;;;;;10.30;4.50;;;;;;;9.06;100.00;101153.31;5092188;28;20032;-52
2022/12/25 08:21:13;;;;;;;12.77;4.90;;;;;;;9.05;100.00;101162.56;5092965;28;20038;-54
2022/12/25 08:23:43;;;;;;;13.45;4.35;;;;;;;9.03;100.00;101170.16;5091738;28;20089;-51
2022/12/25 08:26:19;;;;;;;9.95;4.68;;;;;;;9.04;100.00;101182.66;5091828;28;20486;-52
2022/12/25 08:28:48;;;;;;;12.32;5.22;;;;;;;9.05;100.00;101176.16;5092069;28;20036;-51
2022/12/25 08:31:19;;;;;;;13.23;4.68;;;;;;;9.07;100.00;101165.88;5092950;28;20040;-51
2022/12/25 08:33:48;;;;;;;9.80;3.92;;;;;;;9.10;100.00;101160.72;5092594;28;20143;-51
2022/12/25 08:36:16;;;;;;;9.40;4.18;;;;;;;9.14;100.00;101147.47;5090166;28;20036;-51
2022/12/25 08:38:44;;;;;;;8.18;3.63;;;;;;;9.15;100.00;101162.72;5101247;28;20035;-51
2022/12/25 08:41:13;;;;;;;14.32;5.18;;;;;;;9.17;100.00;101163.28;5092003;28;20044;-52
2022/12/25 08:43:42;;;;;;;14.27;5.70;;;;;;;9.21;100.00;101156.25;5091133;28;20387;-52
2022/12/25 08:46:11;;;;;;;12.18;3.95;;;;;;;9.21;100.00;101158.97;5088602;28;20051;-48
2022/12/25 08:48:41;;;;;;;10.60;4.15;;;;;;;9.21;100.00;101169.84;5090961;28;20075;-52
2022/12/25 08:51:19;;;;;;;8.80;3.58;;;;;;;9.21;100.00;101169.03;5093208;28;20028;-49
2022/12/25 08:53:49;;;;;;;9.40;3.35;;;;;;;9.20;100.00;101164.69;5094297;28;20044;-48
2022/12/25 08:56:18;;;;;;;10.70;3.95;;;;;;;9.19;100.00;101158.44;5092404;28;20036;-50
2022/12/25 08:58:46;;;;;;;8.73;3.50;;;;;;;9.19;100.00;101163.88;5090501;28;20540;-51
2022/12/25 09:01:13;;;;;;;10.32;4.10;;;;;;;9.19;100.00;101163.88;5094379;28;20062;-48
2022/12/25 09:03:42;;;;;;;8.10;3.78;;;;;;;9.17;100.00;101155.13;5096392;28;20055;-50
2022/12/25 09:06:12;;;;;;;15.45;5.18;;;;;;;9.18;100.00;101143.16;5094107;28;20544;-53
2022/12/25 09:08:40;;;;;;;11.15;3.85;;;;;;;9.16;100.00;101148.03;5092505;28;20513;-53
2022/12/25 09:11:16;;;;;;;9.63;3.57;;;;;;;9.16;100.00;101153.47;5090668;28;20090;-52
2022/12/25 09:13:44;;;;;;;9.02;3.92;;;;;;;9.16;100.00;101142.59;5067715;28;20052;-51
2022/12/25 09:16:14;;;;;;;8.85;3.50;;;;;;;9.17;100.00;101133.38;5085602;28;20044;-57
2022/12/25 09:18:42;;;;;;;11.05;4.03;;;;;;;9.14;100.00;101136.59;5092554;28;20044;-58
2022/12/25 09:21:12;;;;;;;10.30;3.65;;;;;;;9.08;100.00;101148.47;4388375;28;10000248;-57
2022/12/25 09:23:40;;;;;;;8.75;3.28;;;;;;;9.05;100.00;101151.69;5086712;28;20051;-58
2022/12/25 09:26:11;;;;;;;8.75;3.50;;;;;;;9.04;100.00;101163.63;5071487;28;20047;-58
2022/12/25 09:28:38;;;;;;;14.25;4.60;;;;;;;9.04;100.00;101178.03;5089394;28;20047;-56
2022/12/25 09:31:13;;;;;;;10.30;4.10;;;;;;;9.09;100.00;101155.53;5089316;28;20074;-52
2022/12/25 09:33:40;;;;;;;10.63;3.97;;;;;;;9.14;100.00;101167.31;5087848;28;20048;-50
2022/12/25 09:36:09;;;;;;;9.65;3.80;;;;;;;9.17;100.00;101163.28;5091421;28;20050;-50
2022/12/25 09:38:36;;;;;;;11.77;4.10;;;;;;;9.20;100.00;101130.16;5082342;28;20040;-51
2022/12/25 09:41:20;;;;;;;18.17;4.47;;;;;;;9.21;100.00;101158.97;5080347;28;20123;-50
2022/12/25 09:44:00;;;;;;;12.32;4.20;;;;;;;9.22;100.00;101168.78;5084952;28;20043;-50
2022/12/25 09:46:29;;;;;;;8.52;3.45;;;;;;;9.23;100.00;101143.22;5094420;28;20040;-50
2022/12/25 09:49:18;;;;;;;8.73;3.42;;;;;;;9.18;100.00;101121.41;5078977;28;20455;-50
2022/12/25 09:51:50;;;;;;;5.90;2.90;;;;;;;9.18;100.00;101124.94;5095398;28;20046;-50
2022/12/25 09:54:46;;;;;;;6.53;2.88;;;;;;;9.21;100.00;101131.78;5094700;28;20398;-48
2022/12/25 09:57:14;;;;;;;8.23;3.25;;;;;;;9.23;100.00;101120.66;5078903;28;20067;-49
2022/12/25 09:59:43;;;;;;;5.20;3.00;;;;;;;9.23;100.00;101120.66;5095244;28;20051;-50
2022/12/25 10:02:29;;;;;;;7.00;3.28;;;;;;;9.25;100.00;101116.63;5095207;28;20514;-51
2022/12/25 10:05:07;;;;;;;8.15;3.15;;;;;;;9.24;100.00;101106.84;5095726;28;20044;-52
2022/12/25 10:07:43;;;;;;;8.05;3.40;;;;;;;9.25;100.00;101118.53;5094134;28;20028;-49
2022/12/25 10:10:21;;;;;;;;;;;;;;;9.26;100.00;101112.00;5093612;28;20067;-51
2022/12/25 10:13:16;;;;;;;7.97;3.88;;;;;;;9.28;100.00;101102.50;5094421;28;19920;-50
2022/12/25 10:15:53;;;;;;;7.68;3.22;;;;;;;9.29;100.00;101116.97;5095446;28;20448;-51
2022/12/25 10:18:43;;;;;;;8.23;3.10;;;;;;;9.28;100.00;101096.25;5094560;28;20032;-48
2022/12/25 10:21:17;;;;;;;7.03;3.08;;;;;;;9.28;100.00;101075.31;5093320;28;20494;-48
2022/12/25 10:24:02;;;;;;;5.97;3.28;;;;;;;9.32;100.00;101087.34;5094463;28;20517;-46
2022/12/25 10:26:32;;;;;;;7.38;3.20;;;;;;;9.34;100.00;101093.34;5095667;28;20036;-50
2022/12/25 10:29:03;;;;;;;10.48;3.40;;;;;;;9.35;100.00;101086.84;5072376;28;20048;-51
2022/12/25 10:31:34;;;;;;;6.75;3.08;;;;;;;9.34;100.00;101085.19;5094611;28;20048;-50
2022/12/25 10:34:03;;;;;;;7.20;2.83;;;;;;;9.34;100.00;101079.75;5111574;28;20097;-49
2022/12/25 10:36:32;;;;;;;5.88;3.08;;;;;;;9.31;100.00;101068.59;5091178;28;20032;-50
2022/12/25 10:38:59;;;;;;;8.15;3.25;;;;;;;9.28;100.00;101078.03;5099045;28;20047;-51
2022/12/25 10:41:46;;;;;;;10.25;3.22;;;;;;;9.24;100.00;101074.22;5094656;28;20048;-51
2022/12/25 10:44:19;;;;;;;10.00;3.53;;;;;;;9.21;100.00;101080.13;5096475;28;20052;-52
2022/12/25 10:46:55;;;;;;;9.10;3.58;;;;;;;9.17;100.00;101077.09;5094670;28;20115;-50
2022/12/25 10:49:28;;;;;;;8.27;3.53;;;;;;;9.17;100.00;101079.81;5093754;28;20054;-52
2022/12/25 10:51:56;;;;;;;10.73;3.85;;;;;;;9.21;100.00;101079.31;5091323;28;20066;-53
2022/12/25 10:54:34;;;;;;;8.07;3.50;;;;;;;9.23;100.00;101083.41;5093688;28;20054;-53
2022/12/25 10:57:15;;;;;;;7.95;3.38;;;;;;;9.25;100.00;101080.47;5094196;28;20113;-50
2022/12/25 10:59:51;;;;;;;9.40;3.42;;;;;;;9.23;100.00;101058.13;5093084;28;20044;-56
2022/12/25 11:02:24;;;;;;;7.55;3.80;;;;;;;9.20;100.00;101045.88;5093632;28;20032;-58
2022/12/25 11:05:19;;;;;;;7.43;3.78;;;;;;;9.22;100.00;101034.75;5094574;28;20052;-57
2022/12/25 11:07:53;;;;;;;9.75;3.92;;;;;;;9.21;100.00;101020.31;5104682;28;20048;-56
2022/12/25 11:10:29;;;;;;;9.73;4.07;;;;;;;9.21;100.00;101025.75;5092194;28;20091;-57
2022/12/25 11:12:58;;;;;;;6.47;3.40;;;;;;;9.25;100.00;101036.97;5094390;28;20040;-57
2022/12/25 11:15:36;;;;;;;9.38;3.33;;;;;;;9.26;100.00;101044.88;5092564;28;20490;-58
2022/12/25 11:18:17;;;;;;;8.27;3.70;;;;;;;9.34;100.00;101030.81;5091404;28;20093;-53
2022/12/25 11:21:16;;;;;;;8.05;3.95;;;;;;;9.37;100.00;101019.41;5092510;28;20090;-56
2022/12/25 11:23:46;;;;;;;12.10;4.00;;;;;;;9.37;100.00;101019.41;5078761;28;20127;-52
2022/12/25 11:26:14;;;;;;;9.10;3.80;;;;;;;9.36;100.00;101016.97;5093117;28;20506;-56
2022/12/25 11:28:43;;;;;;;8.13;3.40;;;;;;;9.37;100.00;101013.16;5092806;28;20135;-55
2022/12/25 11:31:15;;;;;;;7.88;3.50;;;;;;;9.37;100.00;101007.72;5092978;28;20044;-55
2022/12/25 11:33:56;;;;;;;6.70;3.50;;;;;;;9.37;100.00;100997.66;5093858;28;20626;-54
2022/12/25 11:36:51;;;;;;;9.65;3.90;;;;;;;9.39;100.00;100983.81;5074397;28;20051;-50
2022/12/25 11:39:32;;;;;;;10.70;3.53;;;;;;;9.36;100.00;100979.72;4383469;28;10001365;-52
2022/12/25 11:42:10;;;;;;;15.30;7.07;;;;;;;9.38;100.00;100971.31;5088920;28;20054;-49
2022/12/25 11:45:00;;;;;;;16.75;6.40;;;;;;;9.44;100.00;100966.75;5089310;28;20509;-55
2022/12/25 11:47:46;;;;;;;9.07;3.80;;;;;;;9.45;100.00;100969.19;5090002;28;20135;-51
2022/12/25 11:50:24;;;;;;;8.60;4.10;;;;;;;9.46;100.00;100972.75;5105070;28;20062;-52
2022/12/25 11:52:52;;;;;;;7.75;3.55;;;;;;;9.45;100.00;100965.66;5089061;28;20494;-54
2022/12/25 11:55:35;;;;;;;7.50;3.83;;;;;;;9.42;100.00;100974.31;5062734;28;20034;-52
2022/12/25 11:58:33;;;;;;;8.07;3.85;;;;;;;9.41;100.00;100964.53;5089757;28;20052;-56
2022/12/25 12:01:06;;;;;;;8.68;3.78;;;;;;;9.41;100.00;100961.81;5077779;28;20551;-52
2022/12/25 12:03:38;;;;;;;8.05;3.72;;;;;;;9.39;100.00;100953.91;5090335;28;20484;-55
2022/12/25 12:06:12;;;;;;;7.25;3.40;;;;;;;9.38;100.00;100944.94;5091605;28;20151;-55
2022/12/25 12:08:40;;;;;;;7.65;4.20;;;;;;;9.39;100.00;100945.75;5089062;28;20040;-52
2022/12/25 12:11:18;;;;;;;7.45;3.95;;;;;;;9.39;100.00;100930.25;5090162;28;20127;-55
2022/12/25 12:14:08;;;;;;;8.52;4.05;;;;;;;9.37;100.00;100932.41;5088742;28;20486;-53
2022/12/25 12:16:36;;;;;;;9.30;3.75;;;;;;;9.35;100.00;100934.56;5081719;28;20036;-52
2022/12/25 12:19:27;;;;;;;8.38;4.15;;;;;;;9.35;100.00;100929.13;5086631;28;20123;-52
2022/12/25 12:21:57;;;;;;;9.27;4.05;;;;;;;9.37;100.00;100937.03;5084954;28;20048;-54
2022/12/25 12:24:35;;;;;;;8.77;4.22;;;;;;;9.39;100.00;100946.56;5087305;28;20048;-52
2022/12/25 12:27:29;;;;;;;10.57;4.30;;;;;;;9.42;100.00;100938.97;5059972;28;20041;-51
2022/12/25 12:29:58;;;;;;;9.30;3.97;;;;;;;9.42;100.00;100942.50;5075927;28;20055;-51
2022/12/25 12:32:43;;;;;;;7.60;3.70;;;;;;;9.43;100.00;100937.88;5089912;28;20490;-50
2022/12/25 12:35:17;;;;;;;7.20;3.83;;;;;;;9.43;100.00;100946.03;5087664;28;20051;-53
2022/12/25 12:37:48;;;;;;;8.07;3.67;;;;;;;9.43;100.00;100940.59;5082301;28;20040;-53
2022/12/25 12:40:28;;;;;;;8.45;3.72;;;;;;;9.43;100.00;100924.28;5101395;28;20036;-55
2022/12/25 12:42:56;;;;;;;9.35;4.07;;;;;;;9.43;100.00;100916.97;5072083;28;20047;-52
2022/12/25 12:45:30;;;;;;;8.10;4.20;;;;;;;9.44;100.00;100905.00;5088545;28;20050;-52
2022/12/25 12:47:58;;;;;;;8.52;4.20;;;;;;;9.48;100.00;100918.91;5087240;28;20424;-50
2022/12/25 12:50:31;;;;;;;9.30;3.97;;;;;;;9.53;100.00;100908.09;5069762;28;20048;-52
2022/12/25 12:53:00;;;;;;;9.02;4.38;;;;;;;9.53;100.00;100903.47;5089484;28;20063;-53
2022/12/25 12:55:34;;;;;;;8.70;4.00;;;;;;;9.52;100.00;100903.72;5088263;28;20709;-53
2022/12/25 12:58:03;;;;;;;7.05;4.00;;;;;;;9.51;100.00;100899.34;5089358;28;20073;-52
2022/12/25 13:00:48;;;;;;;7.53;4.53;;;;;;;9.49;100.00;100896.06;5089575;28;20040;-56
2022/12/25 13:03:28;;;;;;;11.77;4.45;;;;;;;9.48;100.00;100887.09;5087748;28;20135;-54
2022/12/25 13:06:13;;;;;;;6.97;4.10;;;;;;;9.46;100.00;100883.00;5088527;28;20188;-52
2022/12/25 13:09:15;;;;;;;8.45;3.80;;;;;;;9.46;100.00;100885.72;5071329;28;20055;-51
2022/12/25 13:11:44;;;;;;;6.20;3.85;;;;;;;9.48;100.00;100883.56;5087406;28;20123;-54
2022/12/25 13:14:15;;;;;;;9.32;4.00;;;;;;;9.49;100.00;100886.00;5072462;28;20098;-58
2022/12/25 13:16:45;;;;;;;9.20;3.72;;;;;;;9.45;100.00;100884.88;5092452;28;20055;-57
2022/12/25 13:19:16;;;;;;;7.47;4.10;;;;;;;9.43;100.00;100886.22;5092029;28;20598;-56
2022/12/25 13:21:59;;;;;;;7.20;4.43;;;;;;;9.42;100.00;100862.81;5089600;28;20528;-53
2022/12/25 13:24:32;;;;;;;9.48;5.05;;;;;;;9.43;100.00;100865.31;5091543;28;20048;-55
2022/12/25 13:27:00;;;;;;;9.40;4.85;;;;;;;9.47;100.00;100865.59;5086819;28;20494;-54
2022/12/25 13:29:33;;;;;;;9.27;4.70;;;;;;;9.47;100.00;100860.16;5092646;28;20043;-55